sensor_id;sensor_type;location;lat;lon;timestamp;P1;durP1;ratioP1;P2;durP2;ratioP2
39018;SDS011;24786;51.984;5.872;2022-10-22T00:02:00;7.93;;;4.03;;
39018;SDS011;24786;51.984;5.872;2022-10-22T00:04:26;8.02;;;4.00;;
39018;SDS011;24786;51.984;5.872;2022-10-22T00:06:52;5.60;;;4.18;;
39018;SDS011;24786;51.984;5.872;2022-10-22T00:09:17;6.80;;;3.85;;
39018;SDS011;24786;51.984;5.872;2022-10-22T00:11:43;7.35;;;4.70;;
39018;SDS011;24786;51.984;5.872;2022-10-22T00:14:08;6.13;;;3.55;;
39018;SDS011;24786;51.984;5.872;2022-10-22T00:16:34;10.52;;;4.10;;
39018;SDS011;24786;51.984;5.872;2022-10-22T00:18:59;4.10;;;3.63;;
39018;SDS011;24786;51.984;5.872;2022-10-22T00:21:25;5.28;;;3.92;;
39018;SDS011;24786;51.984;5.872;2022-10-22T00:23:53;4.78;;;3.83;;
39018;SDS011;24786;51.984;5.872;2022-10-22T00:26:19;7.47;;;3.90;;
39018;SDS011;24786;51.984;5.872;2022-10-22T00:28:45;8.35;;;3.70;;
39018;SDS011;24786;51.984;5.872;2022-10-22T00:31:10;6.10;;;3.90;;
39018;SDS011;24786;51.984;5.872;2022-10-22T00:33:36;7.40;;;4.50;;
39018;SDS011;24786;51.984;5.872;2022-10-22T00:36:01;6.13;;;4.60;;
39018;SDS011;24786;51.984;5.872;2022-10-22T00:38:27;8.25;;;4.90;;
39018;SDS011;24786;51.984;5.872;2022-10-22T00:40:53;7.20;;;5.10;;
39018;SDS011;24786;51.984;5.872;2022-10-22T00:43:19;6.63;;;4.93;;
39018;SDS011;24786;51.984;5.872;2022-10-22T00:45:44;10.85;;;5.45;;
39018;SDS011;24786;51.984;5.872;2022-10-22T00:48:15;7.65;;;4.93;;
39018;SDS011;24786;51.984;5.872;2022-10-22T00:50:43;6.82;;;5.10;;
39018;SDS011;24786;51.984;5.872;2022-10-22T00:53:14;8.02;;;4.35;;
39018;SDS011;24786;51.984;5.872;2022-10-22T00:55:43;7.18;;;4.80;;
39018;SDS011;24786;51.984;5.872;2022-10-22T00:58:12;9.17;;;5.03;;
39018;SDS011;24786;51.984;5.872;2022-10-22T01:00:38;6.50;;;4.32;;
39018;SDS011;24786;51.984;5.872;2022-10-22T01:03:03;6.43;;;4.75;;
39018;SDS011;24786;51.984;5.872;2022-10-22T01:05:30;7.20;;;4.63;;
39018;SDS011;24786;51.984;5.872;2022-10-22T01:08:03;5.78;;;4.90;;
39018;SDS011;24786;51.984;5.872;2022-10-22T01:10:37;10.65;;;5.68;;
39018;SDS011;24786;51.984;5.872;2022-10-22T01:13:16;9.40;;;4.75;;
39018;SDS011;24786;51.984;5.872;2022-10-22T01:21:49;12.70;;;6.30;;
39018;SDS011;24786;51.984;5.872;2022-10-22T01:24:25;6.72;;;5.45;;
39018;SDS011;24786;51.984;5.872;2022-10-22T01:27:23;9.27;;;5.70;;
39018;SDS011;24786;51.984;5.872;2022-10-22T01:29:56;8.63;;;5.97;;
39018;SDS011;24786;51.984;5.872;2022-10-22T01:32:43;9.77;;;6.13;;
39018;SDS011;24786;51.984;5.872;2022-10-22T01:35:15;8.18;;;5.40;;
39018;SDS011;24786;51.984;5.872;2022-10-22T01:37:47;9.15;;;6.32;;
39018;SDS011;24786;51.984;5.872;2022-10-22T01:40:16;7.90;;;6.63;;
39018;SDS011;24786;51.984;5.872;2022-10-22T01:42:54;8.45;;;6.28;;
39018;SDS011;24786;51.984;5.872;2022-10-22T01:45:24;15.55;;;7.25;;
39018;SDS011;24786;51.984;5.872;2022-10-22T02:01:29;9.75;;;6.55;;
39018;SDS011;24786;51.984;5.872;2022-10-22T02:06:36;11.98;;;6.63;;
39018;SDS011;24786;51.984;5.872;2022-10-22T02:09:04;8.95;;;6.18;;
39018;SDS011;24786;51.984;5.872;2022-10-22T02:11:32;10.43;;;6.70;;
39018;SDS011;24786;51.984;5.872;2022-10-22T02:13:58;11.70;;;8.18;;
39018;SDS011;24786;51.984;5.872;2022-10-22T02:16:28;11.85;;;7.53;;
39018;SDS011;24786;51.984;5.872;2022-10-22T02:19:04;10.65;;;7.15;;
39018;SDS011;24786;51.984;5.872;2022-10-22T02:21:38;8.77;;;7.10;;
39018;SDS011;24786;51.984;5.872;2022-10-22T02:24:03;12.30;;;7.43;;
39018;SDS011;24786;51.984;5.872;2022-10-22T02:29:01;10.80;;;7.23;;
39018;SDS011;24786;51.984;5.872;2022-10-22T02:31:35;13.80;;;6.75;;
39018;SDS011;24786;51.984;5.872;2022-10-22T02:39:00;10.07;;;6.40;;
39018;SDS011;24786;51.984;5.872;2022-10-22T02:41:26;13.70;;;6.95;;
39018;SDS011;24786;51.984;5.872;2022-10-22T02:43:53;10.38;;;6.78;;
39018;SDS011;24786;51.984;5.872;2022-10-22T02:46:19;8.48;;;7.13;;
39018;SDS011;24786;51.984;5.872;2022-10-22T02:48:45;12.82;;;7.53;;
39018;SDS011;24786;51.984;5.872;2022-10-22T02:51:11;15.05;;;7.75;;
39018;SDS011;24786;51.984;5.872;2022-10-22T02:53:36;14.18;;;7.18;;
39018;SDS011;24786;51.984;5.872;2022-10-22T02:56:02;10.32;;;7.47;;
39018;SDS011;24786;51.984;5.872;2022-10-22T02:58:28;9.13;;;7.18;;
39018;SDS011;24786;51.984;5.872;2022-10-22T03:00:54;12.35;;;7.95;;
39018;SDS011;24786;51.984;5.872;2022-10-22T03:03:19;9.55;;;7.05;;
39018;SDS011;24786;51.984;5.872;2022-10-22T03:05:45;7.70;;;6.80;;
39018;SDS011;24786;51.984;5.872;2022-10-22T03:08:10;8.05;;;6.72;;
39018;SDS011;24786;51.984;5.872;2022-10-22T03:10:36;10.48;;;7.38;;
39018;SDS011;24786;51.984;5.872;2022-10-22T03:13:01;12.43;;;6.80;;
39018;SDS011;24786;51.984;5.872;2022-10-22T03:15:27;9.00;;;7.35;;
39018;SDS011;24786;51.984;5.872;2022-10-22T03:17:53;11.75;;;7.53;;
39018;SDS011;24786;51.984;5.872;2022-10-22T03:20:18;8.48;;;7.18;;
39018;SDS011;24786;51.984;5.872;2022-10-22T03:22:44;12.02;;;7.63;;
39018;SDS011;24786;51.984;5.872;2022-10-22T03:25:11;14.27;;;7.75;;
39018;SDS011;24786;51.984;5.872;2022-10-22T03:27:40;13.93;;;7.60;;
39018;SDS011;24786;51.984;5.872;2022-10-22T03:30:06;10.50;;;7.25;;
39018;SDS011;24786;51.984;5.872;2022-10-22T03:32:34;11.15;;;7.15;;
39018;SDS011;24786;51.984;5.872;2022-10-22T03:34:59;11.57;;;6.47;;
39018;SDS011;24786;51.984;5.872;2022-10-22T03:37:25;11.07;;;6.28;;
39018;SDS011;24786;51.984;5.872;2022-10-22T03:39:51;8.68;;;6.75;;
39018;SDS011;24786;51.984;5.872;2022-10-22T03:42:18;11.45;;;6.85;;
39018;SDS011;24786;51.984;5.872;2022-10-22T03:44:45;9.40;;;6.35;;
39018;SDS011;24786;51.984;5.872;2022-10-22T03:47:11;7.97;;;6.00;;
39018;SDS011;24786;51.984;5.872;2022-10-22T03:49:36;7.60;;;6.00;;
39018;SDS011;24786;51.984;5.872;2022-10-22T03:52:09;9.25;;;6.40;;
39018;SDS011;24786;51.984;5.872;2022-10-22T03:54:36;9.02;;;5.95;;
39018;SDS011;24786;51.984;5.872;2022-10-22T03:57:02;9.27;;;5.63;;
39018;SDS011;24786;51.984;5.872;2022-10-22T03:59:32;8.57;;;6.35;;
39018;SDS011;24786;51.984;5.872;2022-10-22T04:02:02;10.50;;;5.50;;
39018;SDS011;24786;51.984;5.872;2022-10-22T04:04:28;7.70;;;6.07;;
39018;SDS011;24786;51.984;5.872;2022-10-22T04:06:54;10.65;;;6.18;;
39018;SDS011;24786;51.984;5.872;2022-10-22T04:09:19;11.93;;;5.20;;
39018;SDS011;24786;51.984;5.872;2022-10-22T04:11:45;9.48;;;6.20;;
39018;SDS011;24786;51.984;5.872;2022-10-22T04:14:11;9.00;;;4.80;;
39018;SDS011;24786;51.984;5.872;2022-10-22T04:16:37;6.05;;;5.00;;
39018;SDS011;24786;51.984;5.872;2022-10-22T04:19:04;10.70;;;5.68;;
39018;SDS011;24786;51.984;5.872;2022-10-22T04:21:30;10.70;;;5.10;;
39018;SDS011;24786;51.984;5.872;2022-10-22T04:23:56;6.60;;;4.78;;
39018;SDS011;24786;51.984;5.872;2022-10-22T04:26:21;7.15;;;4.72;;
39018;SDS011;24786;51.984;5.872;2022-10-22T04:28:47;10.13;;;5.15;;
39018;SDS011;24786;51.984;5.872;2022-10-22T04:31:20;9.10;;;5.00;;
39018;SDS011;24786;51.984;5.872;2022-10-22T04:33:50;8.93;;;5.50;;
39018;SDS011;24786;51.984;5.872;2022-10-22T04:36:20;7.85;;;4.70;;
39018;SDS011;24786;51.984;5.872;2022-10-22T04:38:46;10.90;;;5.53;;
39018;SDS011;24786;51.984;5.872;2022-10-22T04:41:17;7.63;;;4.28;;
39018;SDS011;24786;51.984;5.872;2022-10-22T04:43:45;9.18;;;5.07;;
39018;SDS011;24786;51.984;5.872;2022-10-22T04:46:12;10.55;;;4.63;;
39018;SDS011;24786;51.984;5.872;2022-10-22T04:48:39;7.82;;;4.90;;
39018;SDS011;24786;51.984;5.872;2022-10-22T04:51:06;8.90;;;5.43;;
39018;SDS011;24786;51.984;5.872;2022-10-22T04:53:34;9.18;;;5.13;;
39018;SDS011;24786;51.984;5.872;2022-10-22T04:56:13;6.72;;;4.75;;
39018;SDS011;24786;51.984;5.872;2022-10-22T04:58:49;11.48;;;5.38;;
39018;SDS011;24786;51.984;5.872;2022-10-22T05:01:19;8.68;;;4.63;;
39018;SDS011;24786;51.984;5.872;2022-10-22T05:03:47;10.50;;;4.87;;
39018;SDS011;24786;51.984;5.872;2022-10-22T05:06:14;7.25;;;4.68;;
39018;SDS011;24786;51.984;5.872;2022-10-22T05:08:40;7.10;;;4.85;;
39018;SDS011;24786;51.984;5.872;2022-10-22T05:11:11;5.63;;;3.92;;
39018;SDS011;24786;51.984;5.872;2022-10-22T05:13:37;7.50;;;5.10;;
39018;SDS011;24786;51.984;5.872;2022-10-22T05:16:03;7.28;;;5.25;;
39018;SDS011;24786;51.984;5.872;2022-10-22T05:18:28;10.95;;;5.35;;
39018;SDS011;24786;51.984;5.872;2022-10-22T05:20:54;7.32;;;5.20;;
39018;SDS011;24786;51.984;5.872;2022-10-22T05:23:19;8.75;;;5.40;;
39018;SDS011;24786;51.984;5.872;2022-10-22T05:25:45;9.63;;;5.55;;
39018;SDS011;24786;51.984;5.872;2022-10-22T05:28:11;9.70;;;5.18;;
39018;SDS011;24786;51.984;5.872;2022-10-22T05:30:36;12.30;;;5.70;;
39018;SDS011;24786;51.984;5.872;2022-10-22T05:33:02;10.55;;;5.25;;
39018;SDS011;24786;51.984;5.872;2022-10-22T05:35:27;7.15;;;4.80;;
39018;SDS011;24786;51.984;5.872;2022-10-22T05:37:53;7.63;;;5.00;;
39018;SDS011;24786;51.984;5.872;2022-10-22T05:40:18;8.73;;;5.65;;
39018;SDS011;24786;51.984;5.872;2022-10-22T05:42:44;8.20;;;5.93;;
39018;SDS011;24786;51.984;5.872;2022-10-22T05:45:09;9.48;;;5.45;;
39018;SDS011;24786;51.984;5.872;2022-10-22T05:47:35;7.88;;;5.10;;
39018;SDS011;24786;51.984;5.872;2022-10-22T05:50:01;13.70;;;5.90;;
39018;SDS011;24786;51.984;5.872;2022-10-22T05:52:27;14.25;;;4.97;;
39018;SDS011;24786;51.984;5.872;2022-10-22T05:54:52;11.13;;;4.93;;
39018;SDS011;24786;51.984;5.872;2022-10-22T05:57:18;12.00;;;5.57;;
39018;SDS011;24786;51.984;5.872;2022-10-22T05:59:43;9.40;;;5.50;;
39018;SDS011;24786;51.984;5.872;2022-10-22T06:02:09;12.55;;;5.35;;
39018;SDS011;24786;51.984;5.872;2022-10-22T06:04:38;9.98;;;5.28;;
39018;SDS011;24786;51.984;5.872;2022-10-22T06:07:03;11.70;;;5.38;;
39018;SDS011;24786;51.984;5.872;2022-10-22T06:09:35;9.13;;;5.40;;
39018;SDS011;24786;51.984;5.872;2022-10-22T06:12:01;7.13;;;5.28;;
39018;SDS011;24786;51.984;5.872;2022-10-22T06:14:42;9.52;;;5.45;;
39018;SDS011;24786;51.984;5.872;2022-10-22T06:17:25;11.02;;;5.32;;
39018;SDS011;24786;51.984;5.872;2022-10-22T06:19:53;9.75;;;5.78;;
39018;SDS011;24786;51.984;5.872;2022-10-22T06:22:18;10.45;;;6.00;;
39018;SDS011;24786;51.984;5.872;2022-10-22T06:24:44;9.55;;;5.45;;
39018;SDS011;24786;51.984;5.872;2022-10-22T06:27:10;8.30;;;5.80;;
39018;SDS011;24786;51.984;5.872;2022-10-22T06:29:35;12.23;;;5.70;;
39018;SDS011;24786;51.984;5.872;2022-10-22T06:32:01;10.85;;;5.50;;
39018;SDS011;24786;51.984;5.872;2022-10-22T06:34:26;12.35;;;5.53;;
39018;SDS011;24786;51.984;5.872;2022-10-22T06:36:52;7.78;;;5.22;;
39018;SDS011;24786;51.984;5.872;2022-10-22T06:39:17;6.55;;;5.07;;
39018;SDS011;24786;51.984;5.872;2022-10-22T06:41:43;9.27;;;5.25;;
39018;SDS011;24786;51.984;5.872;2022-10-22T06:44:14;10.98;;;5.55;;
39018;SDS011;24786;51.984;5.872;2022-10-22T06:46:41;7.03;;;4.80;;
39018;SDS011;24786;51.984;5.872;2022-10-22T06:49:06;10.48;;;5.10;;
39018;SDS011;24786;51.984;5.872;2022-10-22T06:51:39;9.65;;;4.57;;
39018;SDS011;24786;51.984;5.872;2022-10-22T06:54:04;11.90;;;5.32;;
39018;SDS011;24786;51.984;5.872;2022-10-22T06:56:30;13.50;;;5.43;;
39018;SDS011;24786;51.984;5.872;2022-10-22T06:58:56;9.93;;;5.47;;
39018;SDS011;24786;51.984;5.872;2022-10-22T07:01:23;7.32;;;5.20;;
39018;SDS011;24786;51.984;5.872;2022-10-22T07:03:51;14.40;;;5.65;;
39018;SDS011;24786;51.984;5.872;2022-10-22T07:06:40;11.20;;;5.22;;
39018;SDS011;24786;51.984;5.872;2022-10-22T07:09:12;16.57;;;6.07;;
39018;SDS011;24786;51.984;5.872;2022-10-22T07:11:38;8.30;;;4.90;;
39018;SDS011;24786;51.984;5.872;2022-10-22T07:14:21;9.95;;;5.22;;
39018;SDS011;24786;51.984;5.872;2022-10-22T07:16:47;9.35;;;5.05;;
39018;SDS011;24786;51.984;5.872;2022-10-22T07:19:13;10.02;;;5.18;;
39018;SDS011;24786;51.984;5.872;2022-10-22T07:21:53;11.30;;;5.28;;
39018;SDS011;24786;51.984;5.872;2022-10-22T07:24:37;9.77;;;5.25;;
39018;SDS011;24786;51.984;5.872;2022-10-22T07:27:17;14.45;;;5.53;;
39018;SDS011;24786;51.984;5.872;2022-10-22T07:29:42;12.32;;;5.60;;
39018;SDS011;24786;51.984;5.872;2022-10-22T07:32:15;17.73;;;5.80;;
39018;SDS011;24786;51.984;5.872;2022-10-22T07:34:41;9.40;;;4.97;;
39018;SDS011;24786;51.984;5.872;2022-10-22T07:37:12;7.10;;;4.57;;
39018;SDS011;24786;51.984;5.872;2022-10-22T07:39:38;9.35;;;4.28;;
39018;SDS011;24786;51.984;5.872;2022-10-22T07:42:24;10.63;;;4.68;;
39018;SDS011;24786;51.984;5.872;2022-10-22T07:44:53;8.50;;;4.63;;
39018;SDS011;24786;51.984;5.872;2022-10-22T07:50:13;10.00;;;4.35;;
39018;SDS011;24786;51.984;5.872;2022-10-22T07:52:42;9.65;;;4.18;;
39018;SDS011;24786;51.984;5.872;2022-10-22T07:55:16;10.95;;;4.38;;
39018;SDS011;24786;51.984;5.872;2022-10-22T07:57:42;6.47;;;4.45;;
39018;SDS011;24786;51.984;5.872;2022-10-22T08:00:17;8.85;;;4.05;;
39018;SDS011;24786;51.984;5.872;2022-10-22T08:05:31;11.52;;;4.30;;
39018;SDS011;24786;51.984;5.872;2022-10-22T08:07:56;7.75;;;4.55;;
39018;SDS011;24786;51.984;5.872;2022-10-22T08:13:26;13.77;;;4.90;;
39018;SDS011;24786;51.984;5.872;2022-10-22T08:16:00;9.75;;;4.00;;
39018;SDS011;24786;51.984;5.872;2022-10-22T08:18:26;11.25;;;4.57;;
39018;SDS011;24786;51.984;5.872;2022-10-22T08:20:58;12.10;;;4.43;;
39018;SDS011;24786;51.984;5.872;2022-10-22T08:23:44;8.57;;;4.45;;
39018;SDS011;24786;51.984;5.872;2022-10-22T08:26:18;8.98;;;3.90;;
39018;SDS011;24786;51.984;5.872;2022-10-22T08:31:40;9.75;;;4.05;;
39018;SDS011;24786;51.984;5.872;2022-10-22T08:34:06;8.27;;;3.78;;
39018;SDS011;24786;51.984;5.872;2022-10-22T08:36:37;12.18;;;3.88;;
39018;SDS011;24786;51.984;5.872;2022-10-22T08:39:03;11.43;;;3.60;;
39018;SDS011;24786;51.984;5.872;2022-10-22T08:41:35;7.00;;;3.63;;
39018;SDS011;24786;51.984;5.872;2022-10-22T08:44:30;13.20;;;3.40;;
39018;SDS011;24786;51.984;5.872;2022-10-22T08:50:39;8.73;;;3.65;;
39018;SDS011;24786;51.984;5.872;2022-10-22T08:53:28;9.90;;;3.33;;
39018;SDS011;24786;51.984;5.872;2022-10-22T08:56:01;10.75;;;3.30;;
39018;SDS011;24786;51.984;5.872;2022-10-22T09:01:33;9.55;;;3.03;;
39018;SDS011;24786;51.984;5.872;2022-10-22T09:04:18;9.50;;;3.42;;
39018;SDS011;24786;51.984;5.872;2022-10-22T09:06:50;6.13;;;3.25;;
39018;SDS011;24786;51.984;5.872;2022-10-22T09:09:18;12.38;;;2.90;;
39018;SDS011;24786;51.984;5.872;2022-10-22T09:14:55;6.47;;;2.40;;
39018;SDS011;24786;51.984;5.872;2022-10-22T09:17:40;7.95;;;2.70;;
39018;SDS011;24786;51.984;5.872;2022-10-22T09:20:34;10.13;;;3.40;;
39018;SDS011;24786;51.984;5.872;2022-10-22T09:24:16;7.53;;;2.50;;
39018;SDS011;24786;51.984;5.872;2022-10-22T09:26:41;12.13;;;2.65;;
39018;SDS011;24786;51.984;5.872;2022-10-22T09:29:08;9.25;;;2.92;;
39018;SDS011;24786;51.984;5.872;2022-10-22T09:34:43;7.18;;;2.72;;
39018;SDS011;24786;51.984;5.872;2022-10-22T09:37:09;9.80;;;2.47;;
39018;SDS011;24786;51.984;5.872;2022-10-22T09:39:39;9.65;;;3.10;;
39018;SDS011;24786;51.984;5.872;2022-10-22T09:42:35;4.53;;;2.60;;
39018;SDS011;24786;51.984;5.872;2022-10-22T09:45:17;6.35;;;2.50;;
39018;SDS011;24786;51.984;5.872;2022-10-22T09:48:02;6.15;;;2.20;;
39018;SDS011;24786;51.984;5.872;2022-10-22T09:53:56;9.48;;;2.47;;
39018;SDS011;24786;51.984;5.872;2022-10-22T09:59:41;7.80;;;2.50;;
39018;SDS011;24786;51.984;5.872;2022-10-22T10:04:53;9.05;;;3.03;;
39018;SDS011;24786;51.984;5.872;2022-10-22T10:07:22;9.20;;;2.75;;
39018;SDS011;24786;51.984;5.872;2022-10-22T10:09:51;9.32;;;2.90;;
39018;SDS011;24786;51.984;5.872;2022-10-22T10:16:26;5.20;;;2.80;;
39018;SDS011;24786;51.984;5.872;2022-10-22T10:31:06;6.32;;;2.50;;
39018;SDS011;24786;51.984;5.872;2022-10-22T10:33:56;13.90;;;3.28;;
39018;SDS011;24786;51.984;5.872;2022-10-22T10:39:27;9.32;;;3.20;;
39018;SDS011;24786;51.984;5.872;2022-10-22T10:42:36;8.13;;;3.05;;
39018;SDS011;24786;51.984;5.872;2022-10-22T10:45:21;4.50;;;2.35;;
39018;SDS011;24786;51.984;5.872;2022-10-22T11:00:07;8.65;;;4.38;;
39018;SDS011;24786;51.984;5.872;2022-10-22T11:05:33;9.40;;;3.85;;
39018;SDS011;24786;51.984;5.872;2022-10-22T11:08:22;8.88;;;4.22;;
39018;SDS011;24786;51.984;5.872;2022-10-22T11:11:02;7.15;;;3.40;;
39018;SDS011;24786;51.984;5.872;2022-10-22T11:13:38;8.90;;;3.65;;
39018;SDS011;24786;51.984;5.872;2022-10-22T11:16:40;7.18;;;3.60;;
39018;SDS011;24786;51.984;5.872;2022-10-22T11:25:33;12.80;;;4.30;;
39018;SDS011;24786;51.984;5.872;2022-10-22T11:28:24;6.53;;;2.60;;
39018;SDS011;24786;51.984;5.872;2022-10-22T11:31:14;6.88;;;2.70;;
39018;SDS011;24786;51.984;5.872;2022-10-22T11:36:31;8.90;;;2.78;;
39018;SDS011;24786;51.984;5.872;2022-10-22T11:42:20;13.77;;;2.58;;
39018;SDS011;24786;51.984;5.872;2022-10-22T11:58:40;6.10;;;2.33;;
39018;SDS011;24786;51.984;5.872;2022-10-22T12:01:21;7.18;;;2.33;;
39018;SDS011;24786;51.984;5.872;2022-10-22T12:04:19;7.85;;;2.50;;
39018;SDS011;24786;51.984;5.872;2022-10-22T12:07:01;7.93;;;2.45;;
39018;SDS011;24786;51.984;5.872;2022-10-22T12:09:45;6.57;;;2.58;;
39018;SDS011;24786;51.984;5.872;2022-10-22T12:12:42;6.22;;;2.72;;
39018;SDS011;24786;51.984;5.872;2022-10-22T12:15:22;8.25;;;2.33;;
39018;SDS011;24786;51.984;5.872;2022-10-22T12:18:14;9.77;;;2.70;;
39018;SDS011;24786;51.984;5.872;2022-10-22T12:20:48;8.32;;;2.30;;
39018;SDS011;24786;51.984;5.872;2022-10-22T12:23:42;7.72;;;2.35;;
39018;SDS011;24786;51.984;5.872;2022-10-22T12:26:25;10.15;;;2.40;;
39018;SDS011;24786;51.984;5.872;2022-10-22T12:28:55;7.10;;;2.20;;
39018;SDS011;24786;51.984;5.872;2022-10-22T12:34:29;5.53;;;2.28;;
39018;SDS011;24786;51.984;5.872;2022-10-22T12:37:09;6.43;;;2.47;;
39018;SDS011;24786;51.984;5.872;2022-10-22T12:39:38;7.70;;;2.03;;
39018;SDS011;24786;51.984;5.872;2022-10-22T12:42:15;6.00;;;2.20;;
39018;SDS011;24786;51.984;5.872;2022-10-22T12:44:48;9.48;;;2.33;;
39018;SDS011;24786;51.984;5.872;2022-10-22T12:47:20;7.45;;;2.08;;
39018;SDS011;24786;51.984;5.872;2022-10-22T12:50:01;9.65;;;2.22;;
39018;SDS011;24786;51.984;5.872;2022-10-22T12:52:30;6.07;;;1.90;;
39018;SDS011;24786;51.984;5.872;2022-10-22T12:54:56;5.45;;;2.03;;
39018;SDS011;24786;51.984;5.872;2022-10-22T12:57:25;9.45;;;2.38;;
39018;SDS011;24786;51.984;5.872;2022-10-22T12:59:53;8.68;;;2.38;;
39018;SDS011;24786;51.984;5.872;2022-10-22T13:02:23;6.97;;;2.03;;
39018;SDS011;24786;51.984;5.872;2022-10-22T13:05:08;9.15;;;2.50;;
39018;SDS011;24786;51.984;5.872;2022-10-22T13:08:01;5.05;;;1.90;;
39018;SDS011;24786;51.984;5.872;2022-10-22T13:10:49;12.85;;;2.50;;
39018;SDS011;24786;51.984;5.872;2022-10-22T13:13:33;9.55;;;2.15;;
39018;SDS011;24786;51.984;5.872;2022-10-22T13:18:56;10.32;;;1.80;;
39018;SDS011;24786;51.984;5.872;2022-10-22T13:21:40;9.90;;;2.15;;
39018;SDS011;24786;51.984;5.872;2022-10-22T13:27:03;8.93;;;2.30;;
39018;SDS011;24786;51.984;5.872;2022-10-22T13:36:04;7.93;;;2.83;;
39018;SDS011;24786;51.984;5.872;2022-10-22T13:38:31;6.13;;;1.80;;
39018;SDS011;24786;51.984;5.872;2022-10-22T13:40:57;8.90;;;2.70;;
39018;SDS011;24786;51.984;5.872;2022-10-22T13:43:23;10.10;;;2.75;;
39018;SDS011;24786;51.984;5.872;2022-10-22T13:46:04;14.32;;;3.13;;
39018;SDS011;24786;51.984;5.872;2022-10-22T13:48:46;10.27;;;2.60;;
39018;SDS011;24786;51.984;5.872;2022-10-22T13:51:16;5.43;;;2.40;;
39018;SDS011;24786;51.984;5.872;2022-10-22T13:53:52;7.95;;;2.75;;
39018;SDS011;24786;51.984;5.872;2022-10-22T13:56:33;10.18;;;2.90;;
39018;SDS011;24786;51.984;5.872;2022-10-22T13:58:59;9.48;;;3.05;;
39018;SDS011;24786;51.984;5.872;2022-10-22T14:01:33;9.35;;;2.95;;
39018;SDS011;24786;51.984;5.872;2022-10-22T14:04:11;10.57;;;3.00;;
39018;SDS011;24786;51.984;5.872;2022-10-22T14:06:47;10.13;;;2.70;;
39018;SDS011;24786;51.984;5.872;2022-10-22T14:09:16;11.57;;;2.97;;
39018;SDS011;24786;51.984;5.872;2022-10-22T14:11:44;5.30;;;2.10;;
39018;SDS011;24786;51.984;5.872;2022-10-22T14:14:25;9.43;;;2.30;;
39018;SDS011;24786;51.984;5.872;2022-10-22T14:16:57;7.88;;;2.10;;
39018;SDS011;24786;51.984;5.872;2022-10-22T14:19:25;7.38;;;2.58;;
39018;SDS011;24786;51.984;5.872;2022-10-22T14:22:00;11.25;;;2.63;;
39018;SDS011;24786;51.984;5.872;2022-10-22T14:24:35;13.07;;;2.38;;
39018;SDS011;24786;51.984;5.872;2022-10-22T14:27:03;5.03;;;2.10;;
39018;SDS011;24786;51.984;5.872;2022-10-22T14:29:29;9.60;;;2.63;;
39018;SDS011;24786;51.984;5.872;2022-10-22T14:31:55;6.50;;;2.22;;
39018;SDS011;24786;51.984;5.872;2022-10-22T14:34:33;15.00;;;2.65;;
39018;SDS011;24786;51.984;5.872;2022-10-22T14:36:59;10.20;;;2.63;;
39018;SDS011;24786;51.984;5.872;2022-10-22T14:39:33;7.65;;;2.22;;
39018;SDS011;24786;51.984;5.872;2022-10-22T14:42:01;8.23;;;3.30;;
39018;SDS011;24786;51.984;5.872;2022-10-22T14:44:27;7.70;;;2.20;;
39018;SDS011;24786;51.984;5.872;2022-10-22T14:47:08;9.48;;;2.55;;
39018;SDS011;24786;51.984;5.872;2022-10-22T14:49:46;7.13;;;2.78;;
39018;SDS011;24786;51.984;5.872;2022-10-22T14:52:12;6.95;;;2.55;;
39018;SDS011;24786;51.984;5.872;2022-10-22T14:54:56;4.70;;;2.30;;
39018;SDS011;24786;51.984;5.872;2022-10-22T14:57:40;7.40;;;2.60;;
39018;SDS011;24786;51.984;5.872;2022-10-22T15:00:10;10.83;;;2.60;;
39018;SDS011;24786;51.984;5.872;2022-10-22T15:02:41;9.80;;;2.60;;
39018;SDS011;24786;51.984;5.872;2022-10-22T15:05:16;6.63;;;2.60;;
39018;SDS011;24786;51.984;5.872;2022-10-22T15:07:42;10.30;;;2.80;;
39018;SDS011;24786;51.984;5.872;2022-10-22T15:10:09;9.07;;;2.53;;
39018;SDS011;24786;51.984;5.872;2022-10-22T15:12:34;6.90;;;3.33;;
39018;SDS011;24786;51.984;5.872;2022-10-22T15:15:18;10.27;;;2.50;;
39018;SDS011;24786;51.984;5.872;2022-10-22T15:17:46;5.63;;;2.20;;
39018;SDS011;24786;51.984;5.872;2022-10-22T15:20:25;6.32;;;2.40;;
39018;SDS011;24786;51.984;5.872;2022-10-22T15:22:50;12.32;;;2.70;;
39018;SDS011;24786;51.984;5.872;2022-10-22T15:25:16;7.90;;;2.60;;
39018;SDS011;24786;51.984;5.872;2022-10-22T15:28:01;6.45;;;2.30;;
39018;SDS011;24786;51.984;5.872;2022-10-22T15:30:27;8.18;;;2.25;;
39018;SDS011;24786;51.984;5.872;2022-10-22T15:32:52;9.27;;;2.28;;
39018;SDS011;24786;51.984;5.872;2022-10-22T15:35:35;7.07;;;2.60;;
39018;SDS011;24786;51.984;5.872;2022-10-22T15:38:01;6.70;;;2.67;;
39018;SDS011;24786;51.984;5.872;2022-10-22T15:40:36;10.27;;;3.03;;
39018;SDS011;24786;51.984;5.872;2022-10-22T15:43:01;6.93;;;2.50;;
39018;SDS011;24786;51.984;5.872;2022-10-22T15:45:27;6.40;;;2.63;;
39018;SDS011;24786;51.984;5.872;2022-10-22T15:47:53;9.95;;;2.60;;
39018;SDS011;24786;51.984;5.872;2022-10-22T15:50:21;10.45;;;2.53;;
39018;SDS011;24786;51.984;5.872;2022-10-22T15:52:56;6.85;;;2.40;;
39018;SDS011;24786;51.984;5.872;2022-10-22T15:55:21;6.28;;;2.50;;
39018;SDS011;24786;51.984;5.872;2022-10-22T15:57:47;10.80;;;2.88;;
39018;SDS011;24786;51.984;5.872;2022-10-22T16:00:18;6.80;;;2.60;;
39018;SDS011;24786;51.984;5.872;2022-10-22T16:03:08;6.90;;;1.88;;
39018;SDS011;24786;51.984;5.872;2022-10-22T16:05:33;10.18;;;2.33;;
39018;SDS011;24786;51.984;5.872;2022-10-22T16:08:05;6.03;;;2.30;;
39018;SDS011;24786;51.984;5.872;2022-10-22T16:10:31;9.10;;;2.92;;
39018;SDS011;24786;51.984;5.872;2022-10-22T16:12:56;8.95;;;2.70;;
39018;SDS011;24786;51.984;5.872;2022-10-22T16:15:42;11.05;;;2.15;;
39018;SDS011;24786;51.984;5.872;2022-10-22T16:18:14;6.07;;;2.45;;
39018;SDS011;24786;51.984;5.872;2022-10-22T16:20:39;6.90;;;2.67;;
39018;SDS011;24786;51.984;5.872;2022-10-22T16:23:11;5.80;;;2.28;;
39018;SDS011;24786;51.984;5.872;2022-10-22T16:28:10;8.20;;;2.00;;
39018;SDS011;24786;51.984;5.872;2022-10-22T16:33:27;10.68;;;2.17;;
39018;SDS011;24786;51.984;5.872;2022-10-22T16:36:08;10.57;;;2.63;;
39018;SDS011;24786;51.984;5.872;2022-10-22T16:38:53;15.13;;;3.67;;
39018;SDS011;24786;51.984;5.872;2022-10-22T16:41:32;8.25;;;2.45;;
39018;SDS011;24786;51.984;5.872;2022-10-22T16:44:19;8.73;;;3.15;;
39018;SDS011;24786;51.984;5.872;2022-10-22T16:46:48;13.65;;;3.38;;
39018;SDS011;24786;51.984;5.872;2022-10-22T16:49:25;12.52;;;3.38;;
39018;SDS011;24786;51.984;5.872;2022-10-22T16:51:50;6.28;;;3.08;;
39018;SDS011;24786;51.984;5.872;2022-10-22T16:54:16;8.75;;;3.38;;
39018;SDS011;24786;51.984;5.872;2022-10-22T16:56:57;10.35;;;3.50;;
39018;SDS011;24786;51.984;5.872;2022-10-22T16:59:22;8.95;;;2.97;;
39018;SDS011;24786;51.984;5.872;2022-10-22T17:01:48;7.90;;;2.75;;
39018;SDS011;24786;51.984;5.872;2022-10-22T17:04:34;14.73;;;3.83;;
39018;SDS011;24786;51.984;5.872;2022-10-22T17:07:00;15.00;;;3.30;;
39018;SDS011;24786;51.984;5.872;2022-10-22T17:09:34;13.98;;;3.42;;
39018;SDS011;24786;51.984;5.872;2022-10-22T17:11:59;7.93;;;2.78;;
39018;SDS011;24786;51.984;5.872;2022-10-22T17:14:31;11.25;;;3.63;;
39018;SDS011;24786;51.984;5.872;2022-10-22T17:16:57;12.05;;;3.90;;
39018;SDS011;24786;51.984;5.872;2022-10-22T17:19:34;15.50;;;5.13;;
39018;SDS011;24786;51.984;5.872;2022-10-22T17:22:05;14.13;;;4.85;;
39018;SDS011;24786;51.984;5.872;2022-10-22T17:24:31;14.85;;;4.90;;
39018;SDS011;24786;51.984;5.872;2022-10-22T17:26:56;9.95;;;5.07;;
39018;SDS011;24786;51.984;5.872;2022-10-22T17:29:22;18.55;;;4.97;;
39018;SDS011;24786;51.984;5.872;2022-10-22T17:31:49;9.68;;;5.07;;
39018;SDS011;24786;51.984;5.872;2022-10-22T17:34:15;12.73;;;4.85;;